Pays
Station

 

Conditions  météo  pour  St. Petersburg/Clearwater, St. Petersburg/Clearwater International Airport  -  Etats-Unis    Etats-Unis

  
28 °C
    
 
 

METAR pour St. Petersburg/Clearwater, St. Petersburg/Clearwater International Airport :

KPIE 200153Z 30004KT 10SM CLR 28/26 A2996 RMK AO2 SLP146 T02780256

 

Voici le bulletin pour St. Petersburg/Clearwater, St. Petersburg/Clearwater International Airport - Etats-Unis.
 
Le bulletin a été fait il y a 12 minutes, à 01:53 UTC .
Le vent soufflait à la vitesse de 2.1 mètres par seconde de Ouest/Nord-ouest (300°).
 
La température était de 28 °C, avec un point de rosée à 26 °C.
La température ressentie était de 33 °C.
 
La pression atmosphérique était de 1015 hPa.
L'humidité relative était de 88.9%.
 
Le ciel était clair.
 
La visibilité globale était de 16.1 kilomètres.
 

 
 
 

Pays :   A   B   C   D   E   F   G   H   I   J   K   L   M   N   O   P   Q   R   S   T   U   V   W   Y   Z

 

Partenaires :  Info Météo avec Met'info
Météo Marine avec MeteoMarine.net
Infos Site  |  Infos Légales  |  Crédits  |  Confidentialité
Contactez-nous  |  Ajouter aux favoris
© 2013-2018 METAR - Tous droits réservés